sensor_id;sensor_type;location;lat;lon;timestamp;P1;durP1;ratioP1;P2;durP2;ratioP2
47529;SDS011;33272;51.922;7.730;2023-08-24T00:01:47;4.47;;;4.03;;
47529;SDS011;33272;51.922;7.730;2023-08-24T00:04:14;8.20;;;3.80;;
47529;SDS011;33272;51.922;7.730;2023-08-24T00:06:41;5.73;;;3.87;;
47529;SDS011;33272;51.922;7.730;2023-08-24T00:09:09;4.07;;;3.13;;
47529;SDS011;33272;51.922;7.730;2023-08-24T00:11:36;4.67;;;3.67;;
47529;SDS011;33272;51.922;7.730;2023-08-24T00:14:03;4.87;;;3.47;;
47529;SDS011;33272;51.922;7.730;2023-08-24T00:16:30;5.67;;;3.70;;
47529;SDS011;33272;51.922;7.730;2023-08-24T00:18:57;5.40;;;4.10;;
47529;SDS011;33272;51.922;7.730;2023-08-24T00:21:24;4.43;;;4.03;;
47529;SDS011;33272;51.922;7.730;2023-08-24T00:23:51;5.33;;;4.07;;
47529;SDS011;33272;51.922;7.730;2023-08-24T00:26:20;5.67;;;4.90;;
47529;SDS011;33272;51.922;7.730;2023-08-24T00:28:48;5.33;;;3.70;;
47529;SDS011;33272;51.922;7.730;2023-08-24T00:31:15;4.73;;;3.77;;
47529;SDS011;33272;51.922;7.730;2023-08-24T00:33:43;5.43;;;4.27;;
47529;SDS011;33272;51.922;7.730;2023-08-24T00:36:10;6.33;;;3.90;;
47529;SDS011;33272;51.922;7.730;2023-08-24T00:38:37;5.23;;;4.43;;
47529;SDS011;33272;51.922;7.730;2023-08-24T00:41:04;5.50;;;4.23;;
47529;SDS011;33272;51.922;7.730;2023-08-24T00:43:32;5.73;;;4.80;;
47529;SDS011;33272;51.922;7.730;2023-08-24T00:46:01;5.70;;;4.43;;
47529;SDS011;33272;51.922;7.730;2023-08-24T00:48:29;5.17;;;4.50;;
47529;SDS011;33272;51.922;7.730;2023-08-24T00:50:57;8.70;;;4.60;;
47529;SDS011;33272;51.922;7.730;2023-08-24T00:53:29;5.40;;;4.77;;
47529;SDS011;33272;51.922;7.730;2023-08-24T00:55:57;6.63;;;4.60;;
47529;SDS011;33272;51.922;7.730;2023-08-24T00:58:26;7.63;;;4.73;;
47529;SDS011;33272;51.922;7.730;2023-08-24T01:00:56;6.23;;;4.57;;
47529;SDS011;33272;51.922;7.730;2023-08-24T01:03:23;7.20;;;4.93;;
47529;SDS011;33272;51.922;7.730;2023-08-24T01:05:51;4.87;;;4.23;;
47529;SDS011;33272;51.922;7.730;2023-08-24T01:08:18;7.30;;;4.73;;
47529;SDS011;33272;51.922;7.730;2023-08-24T01:10:48;5.93;;;4.60;;
47529;SDS011;33272;51.922;7.730;2023-08-24T01:13:25;5.73;;;4.83;;
47529;SDS011;33272;51.922;7.730;2023-08-24T01:16:03;6.57;;;4.90;;
47529;SDS011;33272;51.922;7.730;2023-08-24T01:18:35;6.57;;;4.63;;
47529;SDS011;33272;51.922;7.730;2023-08-24T01:21:04;7.43;;;5.27;;
47529;SDS011;33272;51.922;7.730;2023-08-24T01:23:33;7.40;;;5.53;;
47529;SDS011;33272;51.922;7.730;2023-08-24T01:26:14;7.77;;;5.03;;
47529;SDS011;33272;51.922;7.730;2023-08-24T01:28:44;8.13;;;6.10;;
47529;SDS011;33272;51.922;7.730;2023-08-24T01:31:13;7.13;;;5.10;;
47529;SDS011;33272;51.922;7.730;2023-08-24T01:33:42;6.63;;;5.20;;
47529;SDS011;33272;51.922;7.730;2023-08-24T01:36:09;6.53;;;5.73;;
47529;SDS011;33272;51.922;7.730;2023-08-24T01:38:39;6.33;;;5.23;;
47529;SDS011;33272;51.922;7.730;2023-08-24T01:41:09;6.93;;;5.10;;
47529;SDS011;33272;51.922;7.730;2023-08-24T01:43:46;5.47;;;4.97;;
47529;SDS011;33272;51.922;7.730;2023-08-24T01:46:19;8.07;;;4.80;;
47529;SDS011;33272;51.922;7.730;2023-08-24T01:48:48;9.90;;;5.23;;
47529;SDS011;33272;51.922;7.730;2023-08-24T01:51:15;6.33;;;5.10;;
47529;SDS011;33272;51.922;7.730;2023-08-24T01:53:44;5.27;;;4.70;;
47529;SDS011;33272;51.922;7.730;2023-08-24T01:56:15;6.40;;;5.37;;
47529;SDS011;33272;51.922;7.730;2023-08-24T01:58:42;8.10;;;5.30;;
47529;SDS011;33272;51.922;7.730;2023-08-24T02:01:09;6.80;;;4.83;;
47529;SDS011;33272;51.922;7.730;2023-08-24T02:03:37;5.93;;;5.33;;
47529;SDS011;33272;51.922;7.730;2023-08-24T02:06:05;5.27;;;4.70;;
47529;SDS011;33272;51.922;7.730;2023-08-24T02:08:32;6.50;;;5.33;;
47529;SDS011;33272;51.922;7.730;2023-08-24T02:11:00;7.93;;;5.80;;
47529;SDS011;33272;51.922;7.730;2023-08-24T02:13:28;8.17;;;6.27;;
47529;SDS011;33272;51.922;7.730;2023-08-24T02:16:01;7.37;;;5.10;;
47529;SDS011;33272;51.922;7.730;2023-08-24T02:18:30;5.60;;;5.00;;
47529;SDS011;33272;51.922;7.730;2023-08-24T02:20:57;8.30;;;6.03;;
47529;SDS011;33272;51.922;7.730;2023-08-24T02:23:24;6.33;;;5.50;;
47529;SDS011;33272;51.922;7.730;2023-08-24T02:25:51;5.93;;;5.33;;
47529;SDS011;33272;51.922;7.730;2023-08-24T02:28:18;6.77;;;5.37;;
47529;SDS011;33272;51.922;7.730;2023-08-24T02:30:46;5.70;;;5.10;;
47529;SDS011;33272;51.922;7.730;2023-08-24T02:33:13;8.27;;;5.03;;
47529;SDS011;33272;51.922;7.730;2023-08-24T02:35:40;5.67;;;5.13;;
47529;SDS011;33272;51.922;7.730;2023-08-24T02:38:10;7.87;;;5.53;;
47529;SDS011;33272;51.922;7.730;2023-08-24T02:40:37;7.53;;;5.73;;
47529;SDS011;33272;51.922;7.730;2023-08-24T02:43:04;7.97;;;5.83;;
47529;SDS011;33272;51.922;7.730;2023-08-24T02:45:31;6.77;;;6.03;;
47529;SDS011;33272;51.922;7.730;2023-08-24T02:47:59;9.27;;;5.70;;
47529;SDS011;33272;51.922;7.730;2023-08-24T02:50:26;7.70;;;5.70;;
47529;SDS011;33272;51.922;7.730;2023-08-24T02:52:53;6.30;;;5.57;;
47529;SDS011;33272;51.922;7.730;2023-08-24T02:55:23;6.67;;;5.57;;
47529;SDS011;33272;51.922;7.730;2023-08-24T02:57:50;6.00;;;5.40;;
47529;SDS011;33272;51.922;7.730;2023-08-24T03:00:17;6.53;;;5.57;;
47529;SDS011;33272;51.922;7.730;2023-08-24T03:02:44;6.37;;;5.40;;
47529;SDS011;33272;51.922;7.730;2023-08-24T03:05:12;7.57;;;6.20;;
47529;SDS011;33272;51.922;7.730;2023-08-24T03:07:39;6.30;;;5.70;;
47529;SDS011;33272;51.922;7.730;2023-08-24T03:10:07;8.53;;;6.90;;
47529;SDS011;33272;51.922;7.730;2023-08-24T03:12:34;8.53;;;6.63;;
47529;SDS011;33272;51.922;7.730;2023-08-24T03:15:01;9.57;;;7.27;;
47529;SDS011;33272;51.922;7.730;2023-08-24T03:17:29;7.93;;;6.50;;
47529;SDS011;33272;51.922;7.730;2023-08-24T03:19:56;7.97;;;6.23;;
47529;SDS011;33272;51.922;7.730;2023-08-24T03:22:24;6.43;;;5.77;;
47529;SDS011;33272;51.922;7.730;2023-08-24T03:24:51;7.60;;;6.47;;
47529;SDS011;33272;51.922;7.730;2023-08-24T03:27:18;7.87;;;6.10;;
47529;SDS011;33272;51.922;7.730;2023-08-24T03:29:45;7.30;;;5.60;;
47529;SDS011;33272;51.922;7.730;2023-08-24T03:32:13;7.00;;;6.00;;
47529;SDS011;33272;51.922;7.730;2023-08-24T03:34:40;7.37;;;5.60;;
47529;SDS011;33272;51.922;7.730;2023-08-24T03:37:07;6.40;;;5.77;;
47529;SDS011;33272;51.922;7.730;2023-08-24T03:39:38;7.60;;;5.77;;
47529;SDS011;33272;51.922;7.730;2023-08-24T03:42:05;9.03;;;6.00;;
47529;SDS011;33272;51.922;7.730;2023-08-24T03:44:33;6.77;;;5.83;;
47529;SDS011;33272;51.922;7.730;2023-08-24T03:47:01;5.93;;;5.43;;
47529;SDS011;33272;51.922;7.730;2023-08-24T03:49:28;6.37;;;5.77;;
47529;SDS011;33272;51.922;7.730;2023-08-24T03:51:55;6.57;;;5.63;;
47529;SDS011;33272;51.922;7.730;2023-08-24T03:54:22;7.67;;;5.80;;
47529;SDS011;33272;51.922;7.730;2023-08-24T03:56:50;7.20;;;6.00;;
47529;SDS011;33272;51.922;7.730;2023-08-24T03:59:17;9.87;;;6.73;;
47529;SDS011;33272;51.922;7.730;2023-08-24T04:01:44;7.67;;;6.20;;
47529;SDS011;33272;51.922;7.730;2023-08-24T04:04:11;6.90;;;6.00;;
47529;SDS011;33272;51.922;7.730;2023-08-24T04:06:38;6.73;;;5.53;;
47529;SDS011;33272;51.922;7.730;2023-08-24T04:09:05;9.73;;;6.30;;
47529;SDS011;33272;51.922;7.730;2023-08-24T04:11:33;8.97;;;5.53;;
47529;SDS011;33272;51.922;7.730;2023-08-24T04:14:01;6.20;;;5.37;;
47529;SDS011;33272;51.922;7.730;2023-08-24T04:16:28;7.83;;;5.60;;
47529;SDS011;33272;51.922;7.730;2023-08-24T04:18:55;9.30;;;6.23;;
47529;SDS011;33272;51.922;7.730;2023-08-24T04:21:22;6.60;;;6.00;;
47529;SDS011;33272;51.922;7.730;2023-08-24T04:23:49;6.17;;;5.57;;
47529;SDS011;33272;51.922;7.730;2023-08-24T04:26:16;6.77;;;6.07;;
47529;SDS011;33272;51.922;7.730;2023-08-24T04:28:43;9.00;;;6.30;;
47529;SDS011;33272;51.922;7.730;2023-08-24T04:31:12;9.27;;;5.60;;
47529;SDS011;33272;51.922;7.730;2023-08-24T04:33:39;8.10;;;6.03;;
47529;SDS011;33272;51.922;7.730;2023-08-24T04:36:06;6.80;;;6.10;;
47529;SDS011;33272;51.922;7.730;2023-08-24T04:38:33;6.97;;;6.13;;
47529;SDS011;33272;51.922;7.730;2023-08-24T04:41:00;8.33;;;5.83;;
47529;SDS011;33272;51.922;7.730;2023-08-24T04:43:32;9.47;;;6.83;;
47529;SDS011;33272;51.922;7.730;2023-08-24T04:46:00;8.03;;;5.47;;
47529;SDS011;33272;51.922;7.730;2023-08-24T04:48:29;10.00;;;7.00;;
47529;SDS011;33272;51.922;7.730;2023-08-24T04:50:58;12.50;;;6.73;;
47529;SDS011;33272;51.922;7.730;2023-08-24T04:53:25;7.17;;;6.47;;
47529;SDS011;33272;51.922;7.730;2023-08-24T04:55:53;7.50;;;6.70;;
47529;SDS011;33272;51.922;7.730;2023-08-24T04:58:20;7.43;;;6.50;;
47529;SDS011;33272;51.922;7.730;2023-08-24T05:00:48;10.73;;;6.90;;
47529;SDS011;33272;51.922;7.730;2023-08-24T05:03:15;9.70;;;7.37;;
47529;SDS011;33272;51.922;7.730;2023-08-24T05:05:44;8.43;;;7.27;;
47529;SDS011;33272;51.922;7.730;2023-08-24T05:08:11;9.23;;;7.60;;
47529;SDS011;33272;51.922;7.730;2023-08-24T05:10:38;8.43;;;7.63;;
47529;SDS011;33272;51.922;7.730;2023-08-24T05:13:06;9.73;;;8.00;;
47529;SDS011;33272;51.922;7.730;2023-08-24T05:15:33;9.27;;;8.37;;
47529;SDS011;33272;51.922;7.730;2023-08-24T05:18:00;9.67;;;8.63;;
47529;SDS011;33272;51.922;7.730;2023-08-24T05:20:27;11.67;;;9.17;;
47529;SDS011;33272;51.922;7.730;2023-08-24T05:22:56;9.83;;;8.93;;
47529;SDS011;33272;51.922;7.730;2023-08-24T05:25:24;9.43;;;8.33;;
47529;SDS011;33272;51.922;7.730;2023-08-24T05:27:51;8.90;;;8.00;;
47529;SDS011;33272;51.922;7.730;2023-08-24T05:30:18;10.00;;;9.00;;
47529;SDS011;33272;51.922;7.730;2023-08-24T05:32:46;10.23;;;9.17;;
47529;SDS011;33272;51.922;7.730;2023-08-24T05:35:13;10.83;;;9.47;;
47529;SDS011;33272;51.922;7.730;2023-08-24T05:37:40;11.50;;;8.80;;
47529;SDS011;33272;51.922;7.730;2023-08-24T05:40:09;10.50;;;9.47;;
47529;SDS011;33272;51.922;7.730;2023-08-24T05:42:36;11.73;;;10.03;;
47529;SDS011;33272;51.922;7.730;2023-08-24T05:45:04;14.20;;;9.80;;
47529;SDS011;33272;51.922;7.730;2023-08-24T05:47:32;11.00;;;9.90;;
47529;SDS011;33272;51.922;7.730;2023-08-24T05:49:59;11.83;;;10.63;;
47529;SDS011;33272;51.922;7.730;2023-08-24T05:52:26;12.63;;;11.10;;
47529;SDS011;33272;51.922;7.730;2023-08-24T05:54:53;13.20;;;11.80;;
47529;SDS011;33272;51.922;7.730;2023-08-24T05:57:22;13.70;;;11.77;;
47529;SDS011;33272;51.922;7.730;2023-08-24T05:59:49;12.90;;;11.57;;
47529;SDS011;33272;51.922;7.730;2023-08-24T06:02:16;11.80;;;10.60;;
47529;SDS011;33272;51.922;7.730;2023-08-24T06:04:43;13.93;;;12.53;;
47529;SDS011;33272;51.922;7.730;2023-08-24T06:07:11;14.20;;;11.80;;
47529;SDS011;33272;51.922;7.730;2023-08-24T06:09:38;13.87;;;12.40;;
47529;SDS011;33272;51.922;7.730;2023-08-24T06:12:05;13.70;;;12.27;;
47529;SDS011;33272;51.922;7.730;2023-08-24T06:14:35;16.23;;;13.60;;
47529;SDS011;33272;51.922;7.730;2023-08-24T06:17:02;14.50;;;13.03;;
47529;SDS011;33272;51.922;7.730;2023-08-24T06:19:30;15.83;;;13.03;;
47529;SDS011;33272;51.922;7.730;2023-08-24T06:21:57;15.13;;;13.53;;
47529;SDS011;33272;51.922;7.730;2023-08-24T06:24:24;15.00;;;12.97;;
47529;SDS011;33272;51.922;7.730;2023-08-24T06:26:51;13.43;;;12.03;;
47529;SDS011;33272;51.922;7.730;2023-08-24T06:29:18;13.63;;;12.17;;
47529;SDS011;33272;51.922;7.730;2023-08-24T06:31:46;17.87;;;12.83;;
47529;SDS011;33272;51.922;7.730;2023-08-24T06:34:13;13.07;;;11.67;;
47529;SDS011;33272;51.922;7.730;2023-08-24T06:36:40;14.00;;;12.07;;
47529;SDS011;33272;51.922;7.730;2023-08-24T06:39:07;13.80;;;12.47;;
47529;SDS011;33272;51.922;7.730;2023-08-24T06:41:34;15.10;;;13.23;;
47529;SDS011;33272;51.922;7.730;2023-08-24T06:44:02;14.77;;;12.67;;
47529;SDS011;33272;51.922;7.730;2023-08-24T06:46:29;16.77;;;14.43;;
47529;SDS011;33272;51.922;7.730;2023-08-24T06:48:57;13.93;;;12.60;;
47529;SDS011;33272;51.922;7.730;2023-08-24T06:51:25;13.93;;;12.53;;
47529;SDS011;33272;51.922;7.730;2023-08-24T06:53:53;15.10;;;13.60;;
47529;SDS011;33272;51.922;7.730;2023-08-24T06:56:20;17.47;;;13.87;;
47529;SDS011;33272;51.922;7.730;2023-08-24T06:58:47;17.47;;;13.13;;
47529;SDS011;33272;51.922;7.730;2023-08-24T07:01:14;14.97;;;13.47;;
47529;SDS011;33272;51.922;7.730;2023-08-24T07:03:42;15.40;;;12.90;;
47529;SDS011;33272;51.922;7.730;2023-08-24T07:06:10;13.60;;;12.30;;
47529;SDS011;33272;51.922;7.730;2023-08-24T07:08:38;15.17;;;13.67;;
47529;SDS011;33272;51.922;7.730;2023-08-24T07:11:05;13.80;;;12.50;;
47529;SDS011;33272;51.922;7.730;2023-08-24T07:13:32;14.13;;;12.77;;
47529;SDS011;33272;51.922;7.730;2023-08-24T07:15:59;13.73;;;12.33;;
47529;SDS011;33272;51.922;7.730;2023-08-24T07:18:28;14.47;;;13.07;;
47529;SDS011;33272;51.922;7.730;2023-08-24T07:20:55;13.97;;;12.57;;
47529;SDS011;33272;51.922;7.730;2023-08-24T07:23:23;15.37;;;13.97;;
47529;SDS011;33272;51.922;7.730;2023-08-24T07:25:51;15.13;;;13.63;;
47529;SDS011;33272;51.922;7.730;2023-08-24T07:28:18;14.90;;;12.13;;
47529;SDS011;33272;51.922;7.730;2023-08-24T07:30:45;14.77;;;13.33;;
47529;SDS011;33272;51.922;7.730;2023-08-24T07:33:12;14.00;;;12.30;;
47529;SDS011;33272;51.922;7.730;2023-08-24T07:35:39;15.90;;;12.33;;
47529;SDS011;33272;51.922;7.730;2023-08-24T07:38:06;13.00;;;11.23;;
47529;SDS011;33272;51.922;7.730;2023-08-24T07:40:34;13.53;;;11.90;;
47529;SDS011;33272;51.922;7.730;2023-08-24T07:43:02;12.90;;;11.70;;
47529;SDS011;33272;51.922;7.730;2023-08-24T07:45:29;12.57;;;11.23;;
47529;SDS011;33272;51.922;7.730;2023-08-24T07:47:56;12.70;;;11.40;;
47529;SDS011;33272;51.922;7.730;2023-08-24T07:50:23;13.03;;;11.70;;
47529;SDS011;33272;51.922;7.730;2023-08-24T07:52:51;13.67;;;11.27;;
47529;SDS011;33272;51.922;7.730;2023-08-24T07:55:18;12.90;;;11.13;;
47529;SDS011;33272;51.922;7.730;2023-08-24T07:57:46;12.53;;;10.70;;
47529;SDS011;33272;51.922;7.730;2023-08-24T08:00:14;12.63;;;10.13;;
47529;SDS011;33272;51.922;7.730;2023-08-24T08:02:41;11.70;;;10.60;;
47529;SDS011;33272;51.922;7.730;2023-08-24T08:05:08;11.70;;;10.27;;
47529;SDS011;33272;51.922;7.730;2023-08-24T08:07:37;12.00;;;10.80;;
47529;SDS011;33272;51.922;7.730;2023-08-24T08:10:05;12.90;;;9.80;;
47529;SDS011;33272;51.922;7.730;2023-08-24T08:12:33;11.27;;;10.17;;
47529;SDS011;33272;51.922;7.730;2023-08-24T08:15:02;11.70;;;10.40;;
47529;SDS011;33272;51.922;7.730;2023-08-24T08:17:29;10.60;;;9.50;;
47529;SDS011;33272;51.922;7.730;2023-08-24T08:19:58;10.80;;;9.60;;
47529;SDS011;33272;51.922;7.730;2023-08-24T08:22:25;10.23;;;8.57;;
47529;SDS011;33272;51.922;7.730;2023-08-24T08:24:52;10.00;;;8.20;;
47529;SDS011;33272;51.922;7.730;2023-08-24T08:27:21;11.60;;;8.67;;
47529;SDS011;33272;51.922;7.730;2023-08-24T08:29:48;12.90;;;8.50;;
47529;SDS011;33272;51.922;7.730;2023-08-24T08:32:18;11.40;;;8.90;;
47529;SDS011;33272;51.922;7.730;2023-08-24T08:34:45;10.87;;;8.50;;
47529;SDS011;33272;51.922;7.730;2023-08-24T08:37:12;12.83;;;8.43;;
47529;SDS011;33272;51.922;7.730;2023-08-24T08:39:39;10.47;;;8.70;;
47529;SDS011;33272;51.922;7.730;2023-08-24T08:42:10;12.00;;;8.73;;
47529;SDS011;33272;51.922;7.730;2023-08-24T08:44:38;11.23;;;8.53;;
47529;SDS011;33272;51.922;7.730;2023-08-24T08:47:06;10.63;;;9.27;;
47529;SDS011;33272;51.922;7.730;2023-08-24T08:49:36;10.90;;;8.00;;
47529;SDS011;33272;51.922;7.730;2023-08-24T08:52:05;8.63;;;7.50;;
47529;SDS011;33272;51.922;7.730;2023-08-24T08:54:32;9.40;;;8.30;;
47529;SDS011;33272;51.922;7.730;2023-08-24T08:56:59;12.57;;;8.97;;
47529;SDS011;33272;51.922;7.730;2023-08-24T08:59:28;9.10;;;8.20;;
47529;SDS011;33272;51.922;7.730;2023-08-24T09:01:56;10.57;;;9.53;;
47529;SDS011;33272;51.922;7.730;2023-08-24T09:04:25;12.33;;;11.13;;
47529;SDS011;33272;51.922;7.730;2023-08-24T09:06:55;12.17;;;10.80;;
47529;SDS011;33272;51.922;7.730;2023-08-24T09:09:23;11.00;;;9.90;;
47529;SDS011;33272;51.922;7.730;2023-08-24T09:11:51;12.17;;;9.40;;
47529;SDS011;33272;51.922;7.730;2023-08-24T09:14:18;10.97;;;8.67;;
47529;SDS011;33272;51.922;7.730;2023-08-24T09:16:45;10.10;;;8.63;;
47529;SDS011;33272;51.922;7.730;2023-08-24T09:19:13;11.37;;;10.03;;
47529;SDS011;33272;51.922;7.730;2023-08-24T09:21:40;10.87;;;9.73;;
47529;SDS011;33272;51.922;7.730;2023-08-24T09:24:09;10.47;;;9.40;;
47529;SDS011;33272;51.922;7.730;2023-08-24T09:26:38;9.47;;;8.57;;
47529;SDS011;33272;51.922;7.730;2023-08-24T09:29:11;10.20;;;9.07;;
47529;SDS011;33272;51.922;7.730;2023-08-24T09:31:39;9.23;;;8.43;;
47529;SDS011;33272;51.922;7.730;2023-08-24T09:34:08;7.63;;;6.53;;
47529;SDS011;33272;51.922;7.730;2023-08-24T09:36:36;6.87;;;6.27;;
47529;SDS011;33272;51.922;7.730;2023-08-24T09:39:04;6.90;;;6.20;;
47529;SDS011;33272;51.922;7.730;2023-08-24T09:41:39;7.33;;;5.97;;
47529;SDS011;33272;51.922;7.730;2023-08-24T09:44:07;7.87;;;6.37;;
47529;SDS011;33272;51.922;7.730;2023-08-24T09:46:34;6.93;;;5.70;;
47529;SDS011;33272;51.922;7.730;2023-08-24T09:49:03;8.10;;;5.93;;
47529;SDS011;33272;51.922;7.730;2023-08-24T09:51:32;6.33;;;5.73;;
47529;SDS011;33272;51.922;7.730;2023-08-24T09:54:01;6.07;;;5.37;;
47529;SDS011;33272;51.922;7.730;2023-08-24T09:56:34;6.23;;;5.33;;
47529;SDS011;33272;51.922;7.730;2023-08-24T09:59:07;7.53;;;5.90;;
47529;SDS011;33272;51.922;7.730;2023-08-24T10:01:43;7.90;;;6.50;;
47529;SDS011;33272;51.922;7.730;2023-08-24T10:04:13;8.27;;;5.90;;
47529;SDS011;33272;51.922;7.730;2023-08-24T10:06:43;6.43;;;5.50;;
47529;SDS011;33272;51.922;7.730;2023-08-24T10:09:14;7.73;;;6.53;;
47529;SDS011;33272;51.922;7.730;2023-08-24T10:11:52;8.17;;;6.43;;
47529;SDS011;33272;51.922;7.730;2023-08-24T10:14:28;7.80;;;5.57;;
47529;SDS011;33272;51.922;7.730;2023-08-24T10:17:02;6.87;;;5.23;;
47529;SDS011;33272;51.922;7.730;2023-08-24T10:19:29;8.23;;;5.90;;
47529;SDS011;33272;51.922;7.730;2023-08-24T10:21:57;8.40;;;6.30;;
47529;SDS011;33272;51.922;7.730;2023-08-24T10:24:26;6.57;;;5.97;;
47529;SDS011;33272;51.922;7.730;2023-08-24T10:26:54;6.80;;;6.03;;
47529;SDS011;33272;51.922;7.730;2023-08-24T10:29:23;7.27;;;5.57;;
47529;SDS011;33272;51.922;7.730;2023-08-24T10:31:53;6.53;;;5.50;;
47529;SDS011;33272;51.922;7.730;2023-08-24T10:34:22;7.10;;;6.40;;
47529;SDS011;33272;51.922;7.730;2023-08-24T10:36:49;7.63;;;5.77;;
47529;SDS011;33272;51.922;7.730;2023-08-24T10:39:17;8.37;;;6.63;;
47529;SDS011;33272;51.922;7.730;2023-08-24T10:41:52;8.03;;;5.60;;
47529;SDS011;33272;51.922;7.730;2023-08-24T10:44:21;8.80;;;5.73;;
47529;SDS011;33272;51.922;7.730;2023-08-24T10:47:07;7.27;;;5.50;;
47529;SDS011;33272;51.922;7.730;2023-08-24T10:49:39;8.60;;;6.13;;
47529;SDS011;33272;51.922;7.730;2023-08-24T10:52:16;5.87;;;4.50;;
47529;SDS011;33272;51.922;7.730;2023-08-24T10:54:45;8.93;;;5.60;;
47529;SDS011;33272;51.922;7.730;2023-08-24T10:57:23;8.47;;;5.43;;
47529;SDS011;33272;51.922;7.730;2023-08-24T11:00:00;6.90;;;4.80;;
47529;SDS011;33272;51.922;7.730;2023-08-24T11:02:42;5.33;;;3.87;;
47529;SDS011;33272;51.922;7.730;2023-08-24T11:05:20;4.77;;;3.50;;
47529;SDS011;33272;51.922;7.730;2023-08-24T11:07:50;6.20;;;3.77;;
47529;SDS011;33272;51.922;7.730;2023-08-24T11:10:21;6.13;;;4.10;;
47529;SDS011;33272;51.922;7.730;2023-08-24T11:13:06;5.03;;;3.87;;
47529;SDS011;33272;51.922;7.730;2023-08-24T11:15:40;4.83;;;3.90;;
47529;SDS011;33272;51.922;7.730;2023-08-24T11:18:19;5.77;;;4.23;;
47529;SDS011;33272;51.922;7.730;2023-08-24T11:20:49;5.57;;;3.70;;
47529;SDS011;33272;51.922;7.730;2023-08-24T11:23:18;4.77;;;4.00;;
47529;SDS011;33272;51.922;7.730;2023-08-24T11:25:46;6.00;;;4.17;;
47529;SDS011;33272;51.922;7.730;2023-08-24T11:28:20;4.77;;;4.20;;
47529;SDS011;33272;51.922;7.730;2023-08-24T11:30:47;4.27;;;3.73;;
47529;SDS011;33272;51.922;7.730;2023-08-24T11:33:17;5.37;;;3.97;;
47529;SDS011;33272;51.922;7.730;2023-08-24T11:35:55;6.73;;;3.63;;
47529;SDS011;33272;51.922;7.730;2023-08-24T11:38:23;4.47;;;3.10;;
47529;SDS011;33272;51.922;7.730;2023-08-24T11:40:50;5.00;;;3.77;;
47529;SDS011;33272;51.922;7.730;2023-08-24T11:43:21;3.70;;;3.40;;
47529;SDS011;33272;51.922;7.730;2023-08-24T11:45:53;3.97;;;3.57;;
47529;SDS011;33272;51.922;7.730;2023-08-24T11:48:25;6.17;;;4.17;;
47529;SDS011;33272;51.922;7.730;2023-08-24T11:50:54;4.30;;;3.10;;
47529;SDS011;33272;51.922;7.730;2023-08-24T11:53:21;6.63;;;3.47;;
47529;SDS011;33272;51.922;7.730;2023-08-24T11:55:49;4.93;;;3.13;;
47529;SDS011;33272;51.922;7.730;2023-08-24T11:58:18;5.80;;;3.60;;
47529;SDS011;33272;51.922;7.730;2023-08-24T12:00:46;6.70;;;3.40;;
47529;SDS011;33272;51.922;7.730;2023-08-24T12:03:13;4.07;;;3.23;;
47529;SDS011;33272;51.922;7.730;2023-08-24T12:05:42;6.13;;;3.50;;
47529;SDS011;33272;51.922;7.730;2023-08-24T12:08:10;4.50;;;3.20;;
47529;SDS011;33272;51.922;7.730;2023-08-24T12:10:41;3.57;;;3.10;;
47529;SDS011;33272;51.922;7.730;2023-08-24T12:13:08;5.57;;;3.93;;
47529;SDS011;33272;51.922;7.730;2023-08-24T12:15:35;5.10;;;3.73;;
47529;SDS011;33272;51.922;7.730;2023-08-24T12:18:06;5.30;;;3.23;;
47529;SDS011;33272;51.922;7.730;2023-08-24T12:20:35;4.67;;;3.57;;
47529;SDS011;33272;51.922;7.730;2023-08-24T12:23:04;4.00;;;3.23;;
47529;SDS011;33272;51.922;7.730;2023-08-24T12:25:35;3.87;;;3.30;;
47529;SDS011;33272;51.922;7.730;2023-08-24T12:28:12;5.87;;;3.37;;
47529;SDS011;33272;51.922;7.730;2023-08-24T12:30:45;6.20;;;3.70;;
47529;SDS011;33272;51.922;7.730;2023-08-24T12:33:23;6.60;;;3.43;;
47529;SDS011;33272;51.922;7.730;2023-08-24T12:35:51;3.67;;;3.37;;
47529;SDS011;33272;51.922;7.730;2023-08-24T12:38:21;5.00;;;3.77;;
47529;SDS011;33272;51.922;7.730;2023-08-24T12:40:50;4.30;;;3.53;;
47529;SDS011;33272;51.922;7.730;2023-08-24T12:43:17;3.97;;;3.10;;
47529;SDS011;33272;51.922;7.730;2023-08-24T12:45:45;3.87;;;2.83;;
47529;SDS011;33272;51.922;7.730;2023-08-24T12:48:12;4.13;;;2.70;;
47529;SDS011;33272;51.922;7.730;2023-08-24T12:50:39;3.90;;;2.63;;
47529;SDS011;33272;51.922;7.730;2023-08-24T12:53:06;3.10;;;2.53;;
47529;SDS011;33272;51.922;7.730;2023-08-24T12:55:35;5.50;;;2.70;;
47529;SDS011;33272;51.922;7.730;2023-08-24T12:58:06;3.20;;;2.40;;
47529;SDS011;33272;51.922;7.730;2023-08-24T13:00:33;2.80;;;2.20;;
47529;SDS011;33272;51.922;7.730;2023-08-24T13:03:00;5.47;;;2.60;;
47529;SDS011;33272;51.922;7.730;2023-08-24T13:05:27;3.20;;;2.47;;
47529;SDS011;33272;51.922;7.730;2023-08-24T13:07:54;4.13;;;2.70;;
47529;SDS011;33272;51.922;7.730;2023-08-24T13:10:22;4.63;;;2.80;;
47529;SDS011;33272;51.922;7.730;2023-08-24T13:12:51;3.17;;;2.50;;
47529;SDS011;33272;51.922;7.730;2023-08-24T13:15:18;3.47;;;2.70;;
47529;SDS011;33272;51.922;7.730;2023-08-24T13:17:45;4.87;;;3.10;;
47529;SDS011;33272;51.922;7.730;2023-08-24T13:20:12;4.63;;;2.93;;
47529;SDS011;33272;51.922;7.730;2023-08-24T13:22:40;3.00;;;2.70;;
47529;SDS011;33272;51.922;7.730;2023-08-24T13:25:07;3.03;;;2.73;;
47529;SDS011;33272;51.922;7.730;2023-08-24T13:27:35;4.23;;;3.17;;
47529;SDS011;33272;51.922;7.730;2023-08-24T13:30:05;3.93;;;2.87;;
47529;SDS011;33272;51.922;7.730;2023-08-24T13:32:33;6.63;;;2.40;;
47529;SDS011;33272;51.922;7.730;2023-08-24T13:35:00;7.00;;;2.80;;
47529;SDS011;33272;51.922;7.730;2023-08-24T13:37:27;3.20;;;2.60;;
47529;SDS011;33272;51.922;7.730;2023-08-24T13:39:55;6.07;;;2.50;;
47529;SDS011;33272;51.922;7.730;2023-08-24T13:42:24;3.20;;;2.90;;
47529;SDS011;33272;51.922;7.730;2023-08-24T13:44:51;4.53;;;2.50;;
47529;SDS011;33272;51.922;7.730;2023-08-24T13:47:19;4.70;;;3.03;;
47529;SDS011;33272;51.922;7.730;2023-08-24T13:49:47;3.50;;;2.60;;
47529;SDS011;33272;51.922;7.730;2023-08-24T13:52:15;4.77;;;2.80;;
47529;SDS011;33272;51.922;7.730;2023-08-24T13:54:44;3.37;;;2.60;;
47529;SDS011;33272;51.922;7.730;2023-08-24T13:57:11;4.40;;;3.13;;
47529;SDS011;33272;51.922;7.730;2023-08-24T13:59:38;5.00;;;3.37;;
47529;SDS011;33272;51.922;7.730;2023-08-24T14:02:05;4.30;;;2.87;;
47529;SDS011;33272;51.922;7.730;2023-08-24T14:04:34;5.03;;;3.00;;
47529;SDS011;33272;51.922;7.730;2023-08-24T14:07:01;5.40;;;2.80;;
47529;SDS011;33272;51.922;7.730;2023-08-24T14:09:28;5.43;;;3.07;;
47529;SDS011;33272;51.922;7.730;2023-08-24T14:11:55;4.60;;;3.33;;
47529;SDS011;33272;51.922;7.730;2023-08-24T14:14:23;4.37;;;2.83;;
47529;SDS011;33272;51.922;7.730;2023-08-24T14:16:53;5.70;;;3.90;;
47529;SDS011;33272;51.922;7.730;2023-08-24T14:19:21;5.07;;;3.63;;
47529;SDS011;33272;51.922;7.730;2023-08-24T14:21:49;4.97;;;3.40;;
47529;SDS011;33272;51.922;7.730;2023-08-24T14:24:16;7.23;;;3.37;;
47529;SDS011;33272;51.922;7.730;2023-08-24T14:26:43;4.70;;;3.13;;
47529;SDS011;33272;51.922;7.730;2023-08-24T14:29:11;4.33;;;3.17;;
47529;SDS011;33272;51.922;7.730;2023-08-24T14:31:39;7.83;;;3.60;;
47529;SDS011;33272;51.922;7.730;2023-08-24T14:34:06;5.47;;;4.43;;
47529;SDS011;33272;51.922;7.730;2023-08-24T14:36:33;7.13;;;3.80;;
47529;SDS011;33272;51.922;7.730;2023-08-24T14:39:02;5.93;;;4.37;;
47529;SDS011;33272;51.922;7.730;2023-08-24T14:41:29;5.90;;;3.50;;
47529;SDS011;33272;51.922;7.730;2023-08-24T14:43:56;4.87;;;3.60;;
47529;SDS011;33272;51.922;7.730;2023-08-24T14:46:23;4.40;;;3.50;;
47529;SDS011;33272;51.922;7.730;2023-08-24T14:48:50;4.47;;;3.30;;